sensor_id;sensor_type;location;lat;lon;timestamp;temperature;humidity
48648;DHT22;34437;-33.956;151.076;2022-10-16T00:00:56;22.20;57.10
48648;DHT22;34437;-33.956;151.076;2022-10-16T00:03:19;22.20;57.20
48648;DHT22;34437;-33.956;151.076;2022-10-16T00:05:42;22.30;57.10
48648;DHT22;34437;-33.956;151.076;2022-10-16T00:08:05;22.20;57.00
48648;DHT22;34437;-33.956;151.076;2022-10-16T00:10:29;22.30;57.20
48648;DHT22;34437;-33.956;151.076;2022-10-16T00:12:51;22.30;57.30
48648;DHT22;34437;-33.956;151.076;2022-10-16T00:15:14;22.30;57.50
48648;DHT22;34437;-33.956;151.076;2022-10-16T00:17:37;22.30;57.80
48648;DHT22;34437;-33.956;151.076;2022-10-16T00:20:00;22.30;58.30
48648;DHT22;34437;-33.956;151.076;2022-10-16T00:22:22;22.40;58.50
48648;DHT22;34437;-33.956;151.076;2022-10-16T00:24:45;22.40;58.70
48648;DHT22;34437;-33.956;151.076;2022-10-16T00:27:07;22.40;58.60
48648;DHT22;34437;-33.956;151.076;2022-10-16T00:29:30;22.50;58.40
48648;DHT22;34437;-33.956;151.076;2022-10-16T00:31:52;22.50;58.20
48648;DHT22;34437;-33.956;151.076;2022-10-16T00:34:15;22.50;58.20
48648;DHT22;34437;-33.956;151.076;2022-10-16T00:36:37;22.50;58.10
48648;DHT22;34437;-33.956;151.076;2022-10-16T00:39:00;22.50;58.00
48648;DHT22;34437;-33.956;151.076;2022-10-16T00:41:24;22.50;57.90
48648;DHT22;34437;-33.956;151.076;2022-10-16T00:46:33;22.50;57.50
48648;DHT22;34437;-33.956;151.076;2022-10-16T00:49:02;22.50;57.50
48648;DHT22;34437;-33.956;151.076;2022-10-16T00:51:32;22.50;57.60
48648;DHT22;34437;-33.956;151.076;2022-10-16T00:53:55;22.50;57.50
48648;DHT22;34437;-33.956;151.076;2022-10-16T00:56:19;22.50;57.40
48648;DHT22;34437;-33.956;151.076;2022-10-16T00:58:41;22.50;57.50
48648;DHT22;34437;-33.956;151.076;2022-10-16T01:01:04;22.50;57.40
48648;DHT22;34437;-33.956;151.076;2022-10-16T01:03:33;22.50;57.30
48648;DHT22;34437;-33.956;151.076;2022-10-16T01:06:05;22.50;57.30
48648;DHT22;34437;-33.956;151.076;2022-10-16T01:11:23;22.50;57.30
48648;DHT22;34437;-33.956;151.076;2022-10-16T01:13:51;22.50;57.20
48648;DHT22;34437;-33.956;151.076;2022-10-16T01:16:31;22.50;57.20
48648;DHT22;34437;-33.956;151.076;2022-10-16T01:19:12;22.50;57.20
48648;DHT22;34437;-33.956;151.076;2022-10-16T01:21:42;22.60;57.00
48648;DHT22;34437;-33.956;151.076;2022-10-16T01:27:05;22.60;56.90
48648;DHT22;34437;-33.956;151.076;2022-10-16T01:29:56;22.60;56.90
48648;DHT22;34437;-33.956;151.076;2022-10-16T01:40:11;22.70;56.80
48648;DHT22;34437;-33.956;151.076;2022-10-16T01:42:41;22.70;56.70
48648;DHT22;34437;-33.956;151.076;2022-10-16T01:45:05;22.70;56.60
48648;DHT22;34437;-33.956;151.076;2022-10-16T01:47:30;22.70;56.50
48648;DHT22;34437;-33.956;151.076;2022-10-16T01:49:54;22.70;56.40
48648;DHT22;34437;-33.956;151.076;2022-10-16T01:52:22;22.70;56.40
48648;DHT22;34437;-33.956;151.076;2022-10-16T01:54:47;22.70;56.50
48648;DHT22;34437;-33.956;151.076;2022-10-16T01:57:13;22.70;56.50
48648;DHT22;34437;-33.956;151.076;2022-10-16T01:59:41;22.80;56.50
48648;DHT22;34437;-33.956;151.076;2022-10-16T02:02:09;22.80;56.50
48648;DHT22;34437;-33.956;151.076;2022-10-16T02:04:44;22.80;56.50
48648;DHT22;34437;-33.956;151.076;2022-10-16T02:07:07;22.80;56.60
48648;DHT22;34437;-33.956;151.076;2022-10-16T02:09:33;22.80;56.50
48648;DHT22;34437;-33.956;151.076;2022-10-16T02:11:57;22.80;56.40
48648;DHT22;34437;-33.956;151.076;2022-10-16T02:14:24;22.80;56.40
48648;DHT22;34437;-33.956;151.076;2022-10-16T02:16:47;22.80;57.00
48648;DHT22;34437;-33.956;151.076;2022-10-16T02:19:10;22.80;56.40
48648;DHT22;34437;-33.956;151.076;2022-10-16T02:21:53;22.80;56.30
48648;DHT22;34437;-33.956;151.076;2022-10-16T02:24:30;22.90;56.40
48648;DHT22;34437;-33.956;151.076;2022-10-16T02:27:17;22.90;56.50
48648;DHT22;34437;-33.956;151.076;2022-10-16T02:29:48;22.90;56.50
48648;DHT22;34437;-33.956;151.076;2022-10-16T02:32:13;22.90;56.40
48648;DHT22;34437;-33.956;151.076;2022-10-16T02:34:38;22.90;56.40
48648;DHT22;34437;-33.956;151.076;2022-10-16T02:37:02;22.90;56.40
48648;DHT22;34437;-33.956;151.076;2022-10-16T02:39:27;22.90;56.30
48648;DHT22;34437;-33.956;151.076;2022-10-16T02:41:50;23.00;56.30
48648;DHT22;34437;-33.956;151.076;2022-10-16T02:44:12;23.00;56.30
48648;DHT22;34437;-33.956;151.076;2022-10-16T02:46:35;23.00;56.20
48648;DHT22;34437;-33.956;151.076;2022-10-16T02:48:57;23.00;56.80
48648;DHT22;34437;-33.956;151.076;2022-10-16T02:51:20;23.00;56.30
48648;DHT22;34437;-33.956;151.076;2022-10-16T02:53:42;23.00;56.20
48648;DHT22;34437;-33.956;151.076;2022-10-16T02:56:05;23.10;56.20
48648;DHT22;34437;-33.956;151.076;2022-10-16T02:58:28;23.10;56.10
48648;DHT22;34437;-33.956;151.076;2022-10-16T03:00:50;23.10;56.10
48648;DHT22;34437;-33.956;151.076;2022-10-16T03:03:13;23.10;56.10
48648;DHT22;34437;-33.956;151.076;2022-10-16T03:05:35;23.10;56.10
48648;DHT22;34437;-33.956;151.076;2022-10-16T03:07:58;23.10;56.10
48648;DHT22;34437;-33.956;151.076;2022-10-16T03:11:04;23.10;56.00
48648;DHT22;34437;-33.956;151.076;2022-10-16T03:13:26;23.20;56.00
48648;DHT22;34437;-33.956;151.076;2022-10-16T03:15:49;23.20;56.00
48648;DHT22;34437;-33.956;151.076;2022-10-16T03:18:11;23.20;56.00
48648;DHT22;34437;-33.956;151.076;2022-10-16T03:20:34;23.20;56.00
48648;DHT22;34437;-33.956;151.076;2022-10-16T03:22:57;23.20;56.00
48648;DHT22;34437;-33.956;151.076;2022-10-16T03:25:20;23.20;55.90
48648;DHT22;34437;-33.956;151.076;2022-10-16T03:27:43;23.20;55.80
48648;DHT22;34437;-33.956;151.076;2022-10-16T03:30:06;23.30;55.90
48648;DHT22;34437;-33.956;151.076;2022-10-16T03:32:29;23.30;55.90
48648;DHT22;34437;-33.956;151.076;2022-10-16T03:34:54;23.30;55.80
48648;DHT22;34437;-33.956;151.076;2022-10-16T03:37:18;23.30;56.10
48648;DHT22;34437;-33.956;151.076;2022-10-16T03:39:41;23.30;55.80
48648;DHT22;34437;-33.956;151.076;2022-10-16T03:42:03;23.40;55.80
48648;DHT22;34437;-33.956;151.076;2022-10-16T03:44:26;23.40;55.80
48648;DHT22;34437;-33.956;151.076;2022-10-16T03:46:48;23.40;55.70
48648;DHT22;34437;-33.956;151.076;2022-10-16T03:49:11;23.40;55.60
48648;DHT22;34437;-33.956;151.076;2022-10-16T03:51:33;23.50;55.60
48648;DHT22;34437;-33.956;151.076;2022-10-16T03:53:56;23.60;55.50
48648;DHT22;34437;-33.956;151.076;2022-10-16T03:56:18;23.60;55.50
48648;DHT22;34437;-33.956;151.076;2022-10-16T03:58:41;23.60;55.40
48648;DHT22;34437;-33.956;151.076;2022-10-16T04:01:03;23.60;55.40
48648;DHT22;34437;-33.956;151.076;2022-10-16T04:03:26;23.70;55.40
48648;DHT22;34437;-33.956;151.076;2022-10-16T04:05:49;23.70;55.30
48648;DHT22;34437;-33.956;151.076;2022-10-16T04:08:12;23.80;55.30
48648;DHT22;34437;-33.956;151.076;2022-10-16T04:10:34;23.80;55.20
48648;DHT22;34437;-33.956;151.076;2022-10-16T04:12:57;23.90;55.20
48648;DHT22;34437;-33.956;151.076;2022-10-16T04:15:19;23.90;55.10
48648;DHT22;34437;-33.956;151.076;2022-10-16T04:17:42;24.00;55.10
48648;DHT22;34437;-33.956;151.076;2022-10-16T04:20:05;24.00;55.10
48648;DHT22;34437;-33.956;151.076;2022-10-16T04:22:28;24.00;55.00
48648;DHT22;34437;-33.956;151.076;2022-10-16T04:24:50;24.10;55.00
48648;DHT22;34437;-33.956;151.076;2022-10-16T04:27:13;24.20;54.90
48648;DHT22;34437;-33.956;151.076;2022-10-16T04:29:35;24.20;54.70
48648;DHT22;34437;-33.956;151.076;2022-10-16T04:31:58;24.30;54.60
48648;DHT22;34437;-33.956;151.076;2022-10-16T04:34:20;24.40;54.40
48648;DHT22;34437;-33.956;151.076;2022-10-16T04:36:43;24.40;54.30
48648;DHT22;34437;-33.956;151.076;2022-10-16T04:39:05;24.60;54.30
48648;DHT22;34437;-33.956;151.076;2022-10-16T04:41:28;24.60;54.10
48648;DHT22;34437;-33.956;151.076;2022-10-16T04:43:51;24.60;54.10
48648;DHT22;34437;-33.956;151.076;2022-10-16T04:46:13;24.70;54.10
48648;DHT22;34437;-33.956;151.076;2022-10-16T04:48:36;24.70;54.10
48648;DHT22;34437;-33.956;151.076;2022-10-16T04:50:58;24.70;54.00
48648;DHT22;34437;-33.956;151.076;2022-10-16T04:53:21;24.70;53.90
48648;DHT22;34437;-33.956;151.076;2022-10-16T04:55:44;24.80;54.00
48648;DHT22;34437;-33.956;151.076;2022-10-16T04:58:07;24.80;53.90
48648;DHT22;34437;-33.956;151.076;2022-10-16T05:00:30;24.90;53.90
48648;DHT22;34437;-33.956;151.076;2022-10-16T05:02:53;25.00;53.80
48648;DHT22;34437;-33.956;151.076;2022-10-16T05:05:15;25.00;53.70
48648;DHT22;34437;-33.956;151.076;2022-10-16T05:07:38;25.10;53.70
48648;DHT22;34437;-33.956;151.076;2022-10-16T05:10:00;25.10;53.50
48648;DHT22;34437;-33.956;151.076;2022-10-16T05:12:23;25.20;53.40
48648;DHT22;34437;-33.956;151.076;2022-10-16T05:14:45;25.30;53.30
48648;DHT22;34437;-33.956;151.076;2022-10-16T05:17:08;25.40;53.30
48648;DHT22;34437;-33.956;151.076;2022-10-16T05:19:31;25.40;53.10
48648;DHT22;34437;-33.956;151.076;2022-10-16T05:21:53;25.50;53.10
48648;DHT22;34437;-33.956;151.076;2022-10-16T05:24:16;25.60;53.00
48648;DHT22;34437;-33.956;151.076;2022-10-16T05:26:38;25.70;52.90
48648;DHT22;34437;-33.956;151.076;2022-10-16T05:29:01;25.80;52.80
48648;DHT22;34437;-33.956;151.076;2022-10-16T05:31:24;25.80;52.70
48648;DHT22;34437;-33.956;151.076;2022-10-16T05:33:46;25.80;52.70
48648;DHT22;34437;-33.956;151.076;2022-10-16T05:36:10;25.80;52.60
48648;DHT22;34437;-33.956;151.076;2022-10-16T05:38:33;25.90;52.50
48648;DHT22;34437;-33.956;151.076;2022-10-16T05:40:55;26.00;52.60
48648;DHT22;34437;-33.956;151.076;2022-10-16T05:43:18;26.10;52.50
48648;DHT22;34437;-33.956;151.076;2022-10-16T05:45:41;26.10;52.40
48648;DHT22;34437;-33.956;151.076;2022-10-16T05:48:04;26.10;52.40
48648;DHT22;34437;-33.956;151.076;2022-10-16T05:50:27;26.10;52.40
48648;DHT22;34437;-33.956;151.076;2022-10-16T05:52:49;26.20;52.40
48648;DHT22;34437;-33.956;151.076;2022-10-16T05:55:12;26.20;52.40
48648;DHT22;34437;-33.956;151.076;2022-10-16T05:57:34;26.20;52.40
48648;DHT22;34437;-33.956;151.076;2022-10-16T05:59:57;26.30;52.40
48648;DHT22;34437;-33.956;151.076;2022-10-16T06:02:19;26.30;52.40
48648;DHT22;34437;-33.956;151.076;2022-10-16T06:04:42;26.30;52.40
48648;DHT22;34437;-33.956;151.076;2022-10-16T06:07:06;26.30;52.30
48648;DHT22;34437;-33.956;151.076;2022-10-16T06:09:28;26.30;52.50
48648;DHT22;34437;-33.956;151.076;2022-10-16T06:11:51;26.20;52.40
48648;DHT22;34437;-33.956;151.076;2022-10-16T06:14:14;26.20;52.70
48648;DHT22;34437;-33.956;151.076;2022-10-16T06:16:37;26.20;52.50
48648;DHT22;34437;-33.956;151.076;2022-10-16T06:19:00;26.20;52.60
48648;DHT22;34437;-33.956;151.076;2022-10-16T06:21:24;26.20;52.60
48648;DHT22;34437;-33.956;151.076;2022-10-16T06:23:47;26.20;52.60
48648;DHT22;34437;-33.956;151.076;2022-10-16T06:26:12;26.20;52.60
48648;DHT22;34437;-33.956;151.076;2022-10-16T06:28:35;26.20;52.70
48648;DHT22;34437;-33.956;151.076;2022-10-16T06:31:02;26.20;52.80
48648;DHT22;34437;-33.956;151.076;2022-10-16T06:33:24;26.20;52.80
48648;DHT22;34437;-33.956;151.076;2022-10-16T06:35:47;26.20;52.80
48648;DHT22;34437;-33.956;151.076;2022-10-16T06:38:09;26.20;52.80
48648;DHT22;34437;-33.956;151.076;2022-10-16T06:40:32;26.20;52.80
48648;DHT22;34437;-33.956;151.076;2022-10-16T06:42:57;26.10;52.70
48648;DHT22;34437;-33.956;151.076;2022-10-16T06:45:20;26.10;52.70
48648;DHT22;34437;-33.956;151.076;2022-10-16T06:47:42;26.10;52.70
48648;DHT22;34437;-33.956;151.076;2022-10-16T06:50:05;26.10;52.70
48648;DHT22;34437;-33.956;151.076;2022-10-16T06:52:29;26.10;52.80
48648;DHT22;34437;-33.956;151.076;2022-10-16T06:54:51;26.10;52.80
48648;DHT22;34437;-33.956;151.076;2022-10-16T06:57:14;26.10;52.80
48648;DHT22;34437;-33.956;151.076;2022-10-16T06:59:36;26.10;52.90
48648;DHT22;34437;-33.956;151.076;2022-10-16T07:01:59;26.00;52.80
48648;DHT22;34437;-33.956;151.076;2022-10-16T07:04:21;26.00;52.80
48648;DHT22;34437;-33.956;151.076;2022-10-16T07:06:44;26.00;52.90
48648;DHT22;34437;-33.956;151.076;2022-10-16T07:09:09;25.90;52.90
48648;DHT22;34437;-33.956;151.076;2022-10-16T07:11:33;25.90;53.10
48648;DHT22;34437;-33.956;151.076;2022-10-16T07:13:56;25.80;53.10
48648;DHT22;34437;-33.956;151.076;2022-10-16T07:16:20;25.80;53.10
48648;DHT22;34437;-33.956;151.076;2022-10-16T07:18:44;25.80;53.30
48648;DHT22;34437;-33.956;151.076;2022-10-16T07:21:10;25.70;53.20
48648;DHT22;34437;-33.956;151.076;2022-10-16T07:23:33;25.70;53.30
48648;DHT22;34437;-33.956;151.076;2022-10-16T07:25:56;25.60;53.30
48648;DHT22;34437;-33.956;151.076;2022-10-16T07:28:18;25.60;53.30
48648;DHT22;34437;-33.956;151.076;2022-10-16T07:30:41;25.60;53.40
48648;DHT22;34437;-33.956;151.076;2022-10-16T07:33:04;25.50;53.40
48648;DHT22;34437;-33.956;151.076;2022-10-16T07:35:26;25.50;53.40
48648;DHT22;34437;-33.956;151.076;2022-10-16T07:37:49;25.50;53.40
48648;DHT22;34437;-33.956;151.076;2022-10-16T07:40:11;25.40;53.20
48648;DHT22;34437;-33.956;151.076;2022-10-16T07:42:34;25.40;53.20
48648;DHT22;34437;-33.956;151.076;2022-10-16T07:44:57;25.40;53.30
48648;DHT22;34437;-33.956;151.076;2022-10-16T07:47:19;25.40;53.20
48648;DHT22;34437;-33.956;151.076;2022-10-16T07:49:42;25.40;53.30
48648;DHT22;34437;-33.956;151.076;2022-10-16T07:52:04;25.30;53.20
48648;DHT22;34437;-33.956;151.076;2022-10-16T07:54:27;25.30;53.30
48648;DHT22;34437;-33.956;151.076;2022-10-16T07:56:50;25.20;53.40
48648;DHT22;34437;-33.956;151.076;2022-10-16T07:59:12;25.20;53.40
48648;DHT22;34437;-33.956;151.076;2022-10-16T08:01:35;25.10;53.30
48648;DHT22;34437;-33.956;151.076;2022-10-16T08:03:57;25.10;53.30
48648;DHT22;34437;-33.956;151.076;2022-10-16T08:06:21;25.10;53.40
48648;DHT22;34437;-33.956;151.076;2022-10-16T08:08:44;25.10;53.50
48648;DHT22;34437;-33.956;151.076;2022-10-16T08:11:07;25.00;53.40
48648;DHT22;34437;-33.956;151.076;2022-10-16T08:13:30;25.00;53.40
48648;DHT22;34437;-33.956;151.076;2022-10-16T08:15:54;25.00;54.00
48648;DHT22;34437;-33.956;151.076;2022-10-16T08:18:17;24.90;53.50
48648;DHT22;34437;-33.956;151.076;2022-10-16T08:20:40;24.90;53.50
48648;DHT22;34437;-33.956;151.076;2022-10-16T08:23:03;24.90;53.50
48648;DHT22;34437;-33.956;151.076;2022-10-16T08:25:26;24.90;53.70
48648;DHT22;34437;-33.956;151.076;2022-10-16T08:27:48;24.90;53.70
48648;DHT22;34437;-33.956;151.076;2022-10-16T08:30:11;24.80;53.70
48648;DHT22;34437;-33.956;151.076;2022-10-16T08:32:34;24.80;53.70
48648;DHT22;34437;-33.956;151.076;2022-10-16T08:34:57;24.80;53.60
48648;DHT22;34437;-33.956;151.076;2022-10-16T08:37:19;24.80;53.80
48648;DHT22;34437;-33.956;151.076;2022-10-16T08:39:42;24.70;53.80
48648;DHT22;34437;-33.956;151.076;2022-10-16T08:50:02;24.60;53.90
48648;DHT22;34437;-33.956;151.076;2022-10-16T08:52:32;24.60;53.80
48648;DHT22;34437;-33.956;151.076;2022-10-16T08:54:57;24.60;53.90
48648;DHT22;34437;-33.956;151.076;2022-10-16T08:57:21;24.60;54.00
48648;DHT22;34437;-33.956;151.076;2022-10-16T08:59:44;24.60;54.00
48648;DHT22;34437;-33.956;151.076;2022-10-16T09:02:38;24.50;54.10
48648;DHT22;34437;-33.956;151.076;2022-10-16T09:08:01;24.50;54.10
48648;DHT22;34437;-33.956;151.076;2022-10-16T09:10:49;24.40;54.20
48648;DHT22;34437;-33.956;151.076;2022-10-16T09:13:27;24.40;54.20
48648;DHT22;34437;-33.956;151.076;2022-10-16T09:18:46;24.40;54.30
48648;DHT22;34437;-33.956;151.076;2022-10-16T09:21:44;24.40;54.40
48648;DHT22;34437;-33.956;151.076;2022-10-16T09:24:22;24.40;54.40
48648;DHT22;34437;-33.956;151.076;2022-10-16T09:26:43;24.30;54.40
48648;DHT22;34437;-33.956;151.076;2022-10-16T09:29:08;24.30;54.50
48648;DHT22;34437;-33.956;151.076;2022-10-16T09:31:31;24.30;54.50
48648;DHT22;34437;-33.956;151.076;2022-10-16T09:34:00;24.30;54.50
48648;DHT22;34437;-33.956;151.076;2022-10-16T09:36:27;24.20;54.70
48648;DHT22;34437;-33.956;151.076;2022-10-16T09:38:50;24.20;54.60
48648;DHT22;34437;-33.956;151.076;2022-10-16T09:41:23;24.20;54.70
48648;DHT22;34437;-33.956;151.076;2022-10-16T09:48:51;24.10;54.80
48648;DHT22;34437;-33.956;151.076;2022-10-16T09:51:35;24.10;54.90
48648;DHT22;34437;-33.956;151.076;2022-10-16T09:54:21;24.10;54.90
48648;DHT22;34437;-33.956;151.076;2022-10-16T09:56:43;24.10;55.20
48648;DHT22;34437;-33.956;151.076;2022-10-16T10:01:40;24.00;55.30
48648;DHT22;34437;-33.956;151.076;2022-10-16T10:04:04;24.00;55.40
48648;DHT22;34437;-33.956;151.076;2022-10-16T10:06:29;24.00;55.20
48648;DHT22;34437;-33.956;151.076;2022-10-16T10:08:55;24.00;55.20
48648;DHT22;34437;-33.956;151.076;2022-10-16T10:11:17;24.00;55.30
48648;DHT22;34437;-33.956;151.076;2022-10-16T10:13:40;24.00;55.50
48648;DHT22;34437;-33.956;151.076;2022-10-16T10:16:02;24.00;55.50
48648;DHT22;34437;-33.956;151.076;2022-10-16T10:18:25;24.00;55.70
48648;DHT22;34437;-33.956;151.076;2022-10-16T10:20:58;23.90;55.70
48648;DHT22;34437;-33.956;151.076;2022-10-16T10:23:23;23.90;55.80
48648;DHT22;34437;-33.956;151.076;2022-10-16T10:28:53;23.90;55.90
48648;DHT22;34437;-33.956;151.076;2022-10-16T10:31:51;23.80;55.60
48648;DHT22;34437;-33.956;151.076;2022-10-16T10:37:09;23.80;55.90
48648;DHT22;34437;-33.956;151.076;2022-10-16T10:39:43;23.80;56.00
48648;DHT22;34437;-33.956;151.076;2022-10-16T10:45:33;23.80;56.00
48648;DHT22;34437;-33.956;151.076;2022-10-16T10:48:10;23.80;56.10
48648;DHT22;34437;-33.956;151.076;2022-10-16T10:51:10;23.70;56.00
48648;DHT22;34437;-33.956;151.076;2022-10-16T10:53:44;23.70;56.30
48648;DHT22;34437;-33.956;151.076;2022-10-16T11:07:30;23.60;56.50
48648;DHT22;34437;-33.956;151.076;2022-10-16T11:10:03;23.60;56.70
48648;DHT22;34437;-33.956;151.076;2022-10-16T11:12:31;23.60;56.70
48648;DHT22;34437;-33.956;151.076;2022-10-16T11:15:29;23.60;56.80
48648;DHT22;34437;-33.956;151.076;2022-10-16T11:18:08;23.60;57.00
48648;DHT22;34437;-33.956;151.076;2022-10-16T11:20:51;23.50;57.00
48648;DHT22;34437;-33.956;151.076;2022-10-16T11:23:16;23.60;57.10
48648;DHT22;34437;-33.956;151.076;2022-10-16T11:25:40;23.50;56.90
48648;DHT22;34437;-33.956;151.076;2022-10-16T11:30:46;23.50;57.20
48648;DHT22;34437;-33.956;151.076;2022-10-16T11:38:30;23.40;57.30
48648;DHT22;34437;-33.956;151.076;2022-10-16T11:40:59;23.40;57.20
48648;DHT22;34437;-33.956;151.076;2022-10-16T11:43:36;23.40;57.30
48648;DHT22;34437;-33.956;151.076;2022-10-16T11:46:04;23.40;57.40
48648;DHT22;34437;-33.956;151.076;2022-10-16T11:48:32;23.40;57.50
48648;DHT22;34437;-33.956;151.076;2022-10-16T11:54:32;23.30;57.40
48648;DHT22;34437;-33.956;151.076;2022-10-16T11:56:55;23.30;57.60
48648;DHT22;34437;-33.956;151.076;2022-10-16T11:59:32;23.30;57.70
48648;DHT22;34437;-33.956;151.076;2022-10-16T12:04:55;23.30;57.70
48648;DHT22;34437;-33.956;151.076;2022-10-16T12:07:27;23.30;57.70
48648;DHT22;34437;-33.956;151.076;2022-10-16T12:09:54;23.30;57.80
48648;DHT22;34437;-33.956;151.076;2022-10-16T12:12:38;23.20;57.90
48648;DHT22;34437;-33.956;151.076;2022-10-16T12:15:18;23.30;57.90
48648;DHT22;34437;-33.956;151.076;2022-10-16T12:17:41;23.30;58.20
48648;DHT22;34437;-33.956;151.076;2022-10-16T12:22:35;23.30;58.60
48648;DHT22;34437;-33.956;151.076;2022-10-16T12:24:58;23.20;58.70
48648;DHT22;34437;-33.956;151.076;2022-10-16T12:27:30;23.20;58.80
48648;DHT22;34437;-33.956;151.076;2022-10-16T12:30:01;23.30;59.10
48648;DHT22;34437;-33.956;151.076;2022-10-16T12:32:37;23.30;59.30
48648;DHT22;34437;-33.956;151.076;2022-10-16T12:35:03;23.30;59.30
48648;DHT22;34437;-33.956;151.076;2022-10-16T12:37:32;23.30;59.30
48648;DHT22;34437;-33.956;151.076;2022-10-16T12:39:56;23.30;59.30
48648;DHT22;34437;-33.956;151.076;2022-10-16T12:44:55;23.30;59.00
48648;DHT22;34437;-33.956;151.076;2022-10-16T12:47:37;23.20;58.80
48648;DHT22;34437;-33.956;151.076;2022-10-16T12:50:00;23.20;58.60
48648;DHT22;34437;-33.956;151.076;2022-10-16T12:52:36;23.20;59.30
48648;DHT22;34437;-33.956;151.076;2022-10-16T12:54:59;23.20;59.80
48648;DHT22;34437;-33.956;151.076;2022-10-16T13:00:36;23.20;60.00
48648;DHT22;34437;-33.956;151.076;2022-10-16T13:06:06;23.20;60.20
48648;DHT22;34437;-33.956;151.076;2022-10-16T13:14:02;23.20;60.30
48648;DHT22;34437;-33.956;151.076;2022-10-16T13:32:35;23.20;60.50
48648;DHT22;34437;-33.956;151.076;2022-10-16T13:34:58;23.20;60.40
48648;DHT22;34437;-33.956;151.076;2022-10-16T13:37:24;23.20;60.90
48648;DHT22;34437;-33.956;151.076;2022-10-16T13:39:47;23.20;60.40
48648;DHT22;34437;-33.956;151.076;2022-10-16T13:42:18;23.20;60.40
48648;DHT22;34437;-33.956;151.076;2022-10-16T13:44:44;23.20;60.50
48648;DHT22;34437;-33.956;151.076;2022-10-16T13:47:19;23.20;60.50
48648;DHT22;34437;-33.956;151.076;2022-10-16T13:49:42;23.20;60.40
48648;DHT22;34437;-33.956;151.076;2022-10-16T13:52:04;23.20;60.50
48648;DHT22;34437;-33.956;151.076;2022-10-16T13:54:28;23.20;60.40
48648;DHT22;34437;-33.956;151.076;2022-10-16T13:56:53;23.20;60.40
48648;DHT22;34437;-33.956;151.076;2022-10-16T13:59:41;23.20;60.40
48648;DHT22;34437;-33.956;151.076;2022-10-16T14:04:50;23.20;60.30
48648;DHT22;34437;-33.956;151.076;2022-10-16T14:07:29;23.20;60.50
48648;DHT22;34437;-33.956;151.076;2022-10-16T14:09:54;23.20;60.50
48648;DHT22;34437;-33.956;151.076;2022-10-16T14:12:17;23.20;60.40
48648;DHT22;34437;-33.956;151.076;2022-10-16T14:14:45;23.20;60.40
48648;DHT22;34437;-33.956;151.076;2022-10-16T14:17:24;23.20;60.30
48648;DHT22;34437;-33.956;151.076;2022-10-16T14:19:50;23.10;60.20
48648;DHT22;34437;-33.956;151.076;2022-10-16T14:22:25;23.10;60.30
48648;DHT22;34437;-33.956;151.076;2022-10-16T14:24:48;23.10;60.30
48648;DHT22;34437;-33.956;151.076;2022-10-16T14:27:30;23.20;60.30
48648;DHT22;34437;-33.956;151.076;2022-10-16T14:32:36;23.10;60.30
48648;DHT22;34437;-33.956;151.076;2022-10-16T14:34:59;23.10;60.40
48648;DHT22;34437;-33.956;151.076;2022-10-16T14:37:28;23.10;60.30
48648;DHT22;34437;-33.956;151.076;2022-10-16T14:39:52;23.00;60.40
48648;DHT22;34437;-33.956;151.076;2022-10-16T14:42:17;23.10;60.50
48648;DHT22;34437;-33.956;151.076;2022-10-16T14:44:41;23.00;60.50
48648;DHT22;34437;-33.956;151.076;2022-10-16T14:47:13;23.00;60.30
48648;DHT22;34437;-33.956;151.076;2022-10-16T14:49:36;23.00;60.20
48648;DHT22;34437;-33.956;151.076;2022-10-16T14:51:58;23.00;60.20
48648;DHT22;34437;-33.956;151.076;2022-10-16T14:54:21;23.00;60.20
48648;DHT22;34437;-33.956;151.076;2022-10-16T14:59:37;23.00;60.20
48648;DHT22;34437;-33.956;151.076;2022-10-16T15:02:47;22.90;60.10
48648;DHT22;34437;-33.956;151.076;2022-10-16T15:04:44;22.90;60.10
48648;DHT22;34437;-33.956;151.076;2022-10-16T15:07:07;22.90;60.20
48648;DHT22;34437;-33.956;151.076;2022-10-16T15:09:30;22.90;60.40
48648;DHT22;34437;-33.956;151.076;2022-10-16T15:11:52;22.90;60.30
48648;DHT22;34437;-33.956;151.076;2022-10-16T15:14:15;22.90;60.30
48648;DHT22;34437;-33.956;151.076;2022-10-16T15:16:37;22.80;60.40
48648;DHT22;34437;-33.956;151.076;2022-10-16T15:19:00;22.80;60.40
48648;DHT22;34437;-33.956;151.076;2022-10-16T15:21:31;22.80;60.40
48648;DHT22;34437;-33.956;151.076;2022-10-16T15:23:54;22.70;60.30
48648;DHT22;34437;-33.956;151.076;2022-10-16T15:26:18;22.70;60.40
48648;DHT22;34437;-33.956;151.076;2022-10-16T15:28:40;22.70;60.30
48648;DHT22;34437;-33.956;151.076;2022-10-16T15:31:05;22.70;60.40
48648;DHT22;34437;-33.956;151.076;2022-10-16T15:33:28;22.70;60.30
48648;DHT22;34437;-33.956;151.076;2022-10-16T15:35:55;22.70;60.40
48648;DHT22;34437;-33.956;151.076;2022-10-16T15:38:19;22.70;60.90
48648;DHT22;34437;-33.956;151.076;2022-10-16T15:40:42;22.70;61.00
48648;DHT22;34437;-33.956;151.076;2022-10-16T15:43:05;22.70;60.70
48648;DHT22;34437;-33.956;151.076;2022-10-16T15:45:27;22.70;60.90
48648;DHT22;34437;-33.956;151.076;2022-10-16T15:47:50;22.70;60.90
48648;DHT22;34437;-33.956;151.076;2022-10-16T15:50:14;22.70;60.80
48648;DHT22;34437;-33.956;151.076;2022-10-16T15:52:37;22.60;60.70
48648;DHT22;34437;-33.956;151.076;2022-10-16T15:55:00;22.60;60.70
48648;DHT22;34437;-33.956;151.076;2022-10-16T15:57:22;22.60;60.80
48648;DHT22;34437;-33.956;151.076;2022-10-16T15:59:45;22.60;60.80
48648;DHT22;34437;-33.956;151.076;2022-10-16T16:02:09;22.60;60.80
48648;DHT22;34437;-33.956;151.076;2022-10-16T16:04:31;22.60;60.80
48648;DHT22;34437;-33.956;151.076;2022-10-16T16:06:54;22.60;60.60
48648;DHT22;34437;-33.956;151.076;2022-10-16T16:09:16;22.50;60.60
48648;DHT22;34437;-33.956;151.076;2022-10-16T16:11:39;22.50;60.70
48648;DHT22;34437;-33.956;151.076;2022-10-16T16:14:02;22.50;60.60
48648;DHT22;34437;-33.956;151.076;2022-10-16T16:16:24;22.50;61.50
48648;DHT22;34437;-33.956;151.076;2022-10-16T16:18:47;22.50;61.50
48648;DHT22;34437;-33.956;151.076;2022-10-16T16:21:12;22.50;61.50
48648;DHT22;34437;-33.956;151.076;2022-10-16T16:23:34;22.50;61.50
48648;DHT22;34437;-33.956;151.076;2022-10-16T16:26:29;22.40;61.40
48648;DHT22;34437;-33.956;151.076;2022-10-16T16:28:59;22.50;61.50
48648;DHT22;34437;-33.956;151.076;2022-10-16T16:31:25;22.50;61.50
48648;DHT22;34437;-33.956;151.076;2022-10-16T16:33:48;22.50;61.40